Time;durP1;ratioP1;P1;durP2;ratioP2;P2;SDS_P1;SDS_P2;PMS_P1;PMS_P2;Temp;Humidity;BMP_temperature;BMP_pressure;BME280_temperature;BME280_humidity;BME280_pressure;Samples;Min_cycle;Max_cycle;Signal;HPM_P1;HPM_P2
2022/06/03 00:01:57;;;;;;;11.37;6.13;;;14.40;85.40;;;;;;5010899;28;20481;-53
2022/06/03 00:04:48;;;;;;;6.67;6.07;;;14.50;84.90;;;;;;4983620;28;20477;-53
2022/06/03 00:07:31;;;;;;;5.57;4.40;;;14.60;84.80;;;;;;5018035;28;20499;-54
2022/06/03 00:10:28;;;;;;;15.03;5.97;;;14.60;84.50;;;;;;5009473;28;20838;-54
2022/06/03 00:13:02;;;;;;;23.27;6.50;;;14.50;84.20;;;;;;5010675;28;20480;-53
2022/06/03 00:15:50;;;;;;;6.80;5.80;;;14.50;83.90;;;;;;4995270;28;20479;-58
2022/06/03 00:19:05;;;;;;;6.57;6.00;;;14.40;84.20;;;;;;5009310;28;20867;-53
2022/06/03 00:21:47;;;;;;;12.70;5.00;;;14.30;84.30;;;;;;4984665;28;20633;-54
2022/06/03 00:24:24;;;;;;;4.57;3.87;;;14.20;83.90;;;;;;5008680;28;20497;-52
2022/06/03 00:27:20;;;;;;;15.00;5.73;;;14.20;84.10;;;;;;5002697;28;20492;-53
2022/06/03 00:30:04;;;;;;;13.63;5.60;;;14.10;84.00;;;;;;5001568;28;20500;-53
2022/06/03 00:32:58;;;;;;;6.17;5.60;;;14.00;83.70;;;;;;4997536;28;20479;-53
2022/06/03 00:35:43;;;;;;;6.13;5.63;;;13.90;83.90;;;;;;5029924;28;20484;-53
2022/06/03 00:38:56;;;;;;;5.43;4.97;;;13.80;84.30;;;;;;4997259;28;20489;-53
2022/06/03 00:41:41;;;;;;;32.27;7.27;;;13.60;85.10;;;;;;5016585;28;21019;-53
2022/06/03 00:44:25;;;;;;;6.30;5.70;;;13.50;84.90;;;;;;5021809;28;20472;-53
2022/06/03 00:47:05;;;;;;;7.30;5.67;;;13.50;84.90;;;;;;5022767;28;20494;-53
2022/06/03 00:49:58;;;;;;;5.40;4.77;;;13.50;85.00;;;;;;4989258;28;20846;-53
2022/06/03 00:53:00;;;;;;;6.07;5.47;;;13.50;85.10;;;;;;4999611;28;20480;-53
2022/06/03 00:55:49;;;;;;;5.40;4.03;;;13.50;84.20;;;;;;4998454;28;20481;-53
2022/06/03 00:58:39;;;;;;;13.03;5.37;;;13.50;84.30;;;;;;5001779;28;21024;-53
2022/06/03 01:01:11;;;;;;;9.13;4.57;;;13.50;84.60;;;;;;4986073;28;20842;-53
2022/06/03 01:04:03;;;;;;;20.47;5.37;;;13.40;85.10;;;;;;4996568;28;20489;-53
2022/06/03 01:06:44;;;;;;;6.37;4.67;;;13.40;85.70;;;;;;5002247;28;20479;-53
2022/06/03 01:09:22;;;;;;;12.77;6.67;;;13.40;85.50;;;;;;4998950;28;20997;-53
2022/06/03 01:12:05;;;;;;;21.53;6.00;;;13.40;84.80;;;;;;4999108;28;20498;-53
2022/06/03 01:14:47;;;;;;;5.20;4.07;;;13.40;85.20;;;;;;5002123;28;20484;-53
2022/06/03 01:17:24;;;;;;;17.77;6.47;;;13.40;84.70;;;;;;4989568;28;20489;-53
2022/06/03 01:20:03;;;;;;;7.07;5.20;;;13.30;85.10;;;;;;4992216;28;20503;-53
2022/06/03 01:23:03;;;;;;;9.43;4.67;;;13.20;84.70;;;;;;5009479;28;20491;-53
2022/06/03 01:25:54;;;;;;;6.27;4.43;;;13.20;84.80;;;;;;5002533;28;20492;-53
2022/06/03 01:28:43;;;;;;;11.20;6.40;;;13.10;85.50;;;;;;5002285;28;20487;-53
2022/06/03 01:31:26;;;;;;;6.20;5.10;;;13.00;85.30;;;;;;5000858;28;20491;-53
2022/06/03 01:34:09;;;;;;;15.30;4.90;;;13.00;85.10;;;;;;5002191;28;20494;-53
2022/06/03 01:36:53;;;;;;;6.80;5.23;;;13.00;84.90;;;;;;5002193;28;20499;-53
2022/06/03 01:39:35;;;;;;;10.47;5.13;;;13.00;85.30;;;;;;4999431;28;20973;-53
2022/06/03 01:42:48;;;;;;;11.33;5.80;;;13.00;85.60;;;;;;5002354;28;20880;-53
2022/06/03 01:45:31;;;;;;;8.73;7.27;;;12.80;85.60;;;;;;4955344;28;20972;-53
2022/06/03 01:48:12;;;;;;;6.83;5.37;;;12.80;85.10;;;;;;5000204;28;20483;-53
2022/06/03 01:51:09;;;;;;;5.77;4.67;;;12.80;85.70;;;;;;4989334;28;20468;-53
2022/06/03 01:53:56;;;;;;;12.43;5.90;;;12.80;85.90;;;;;;4989242;28;20475;-53
2022/06/03 01:56:38;;;;;;;8.33;6.20;;;12.80;85.50;;;;;;4999396;28;20938;-53
2022/06/03 01:59:36;;;;;;;14.13;5.90;;;12.80;85.70;;;;;;4998487;28;20483;-54
2022/06/03 02:02:42;;;;;;;17.57;6.47;;;12.70;85.70;;;;;;4987366;28;20483;-53
2022/06/03 02:05:42;;;;;;;5.97;5.13;;;12.50;85.90;;;;;;5000503;28;20484;-53
2022/06/03 02:08:37;;;;;;;9.73;5.77;;;12.40;85.60;;;;;;4956460;28;20904;-54
2022/06/03 02:11:22;;;;;;;9.10;5.00;;;;;;;;;;5000646;28;20496;-53
2022/06/03 02:14:17;;;;;;;5.70;5.10;;;12.50;86.30;;;;;;4998336;28;20583;-53
2022/06/03 02:17:26;;;;;;;11.70;5.63;;;12.30;87.00;;;;;;5005387;28;21063;-54
2022/06/03 02:20:26;;;;;;;7.47;6.77;;;12.20;87.10;;;;;;4956533;28;20485;-53
2022/06/03 02:23:25;;;;;;;9.20;5.57;;;12.20;87.10;;;;;;4994480;28;20484;-54
2022/06/03 02:26:29;;;;;;;10.60;5.43;;;12.10;87.20;;;;;;5019398;28;21010;-54
2022/06/03 02:32:25;;;;;;;9.73;7.10;;;;;;;;;;5002591;28;21103;-53
2022/06/03 02:35:21;;;;;;;17.00;5.50;;;12.00;87.50;;;;;;4990484;28;20897;-53
2022/06/03 02:38:20;;;;;;;8.73;5.53;;;12.10;87.70;;;;;;5014206;28;20484;-53
2022/06/03 02:41:13;;;;;;;12.77;4.20;;;12.10;87.80;;;;;;4982255;28;20480;-53
2022/06/03 02:44:24;;;;;;;5.40;4.80;;;12.20;87.90;;;;;;4999378;28;20986;-53
2022/06/03 02:47:40;;;;;;;6.00;5.40;;;12.30;87.60;;;;;;5000323;28;20487;-54
2022/06/03 02:50:39;;;;;;;5.33;4.87;;;12.30;86.90;;;;;;4996555;28;20471;-53
2022/06/03 02:53:55;;;;;;;6.07;5.20;;;12.30;86.40;;;;;;4998678;28;20710;-53
2022/06/03 02:56:42;;;;;;;10.03;5.30;;;12.20;86.70;;;;;;4988237;28;20555;-55
2022/06/03 02:59:25;;;;;;;10.83;4.90;;;12.20;87.20;;;;;;4993960;28;21032;-53
2022/06/03 03:02:36;;;;;;;5.93;4.80;;;12.30;86.80;;;;;;4990610;28;20468;-53
2022/06/03 03:05:28;;;;;;;14.30;4.87;;;12.10;87.30;;;;;;4987400;28;20922;-54
2022/06/03 03:08:32;;;;;;;5.83;4.20;;;12.00;87.30;;;;;;4989699;28;20880;-54
2022/06/03 03:11:17;;;;;;;8.40;5.53;;;12.10;87.20;;;;;;4991022;28;20494;-53
2022/06/03 03:14:13;;;;;;;13.03;4.80;;;12.10;87.20;;;;;;4999318;28;20470;-53
2022/06/03 03:16:54;;;;;;;10.00;4.30;;;12.10;87.30;;;;;;4999917;28;20486;-53
2022/06/03 03:19:46;;;;;;;9.30;5.40;;;12.10;87.20;;;;;;4979100;28;21346;-53
2022/06/03 03:22:39;;;;;;;20.83;6.33;;;12.20;87.60;;;;;;4992314;28;21261;-53
2022/06/03 03:25:24;;;;;;;5.70;4.87;;;;;;;;;;5000688;28;20716;-52
2022/06/03 03:28:24;;;;;;;11.03;5.13;;;12.20;87.60;;;;;;4986668;28;20550;-52
2022/06/03 03:31:08;;;;;;;8.70;5.20;;;12.10;87.70;;;;;;4986217;28;20519;-53
2022/06/03 03:33:58;;;;;;;35.17;5.83;;;12.00;88.00;;;;;;4992606;28;21216;-54
2022/06/03 03:36:40;;;;;;;8.90;4.73;;;;;;;;;;4978206;28;20494;-54
2022/06/03 03:39:51;;;;;;;6.73;4.53;;;12.10;88.20;;;;;;4989683;28;20496;-53
2022/06/03 03:42:43;;;;;;;12.90;6.00;;;12.10;87.90;;;;;;4987554;28;20472;-53
2022/06/03 03:45:47;;;;;;;32.53;6.33;;;12.10;87.90;;;;;;4998404;28;20472;-53
2022/06/03 03:48:53;;;;;;;13.77;5.93;;;12.10;88.10;;;;;;4999544;28;20984;-54
2022/06/03 03:51:28;;;;;;;19.77;6.67;;;;;;;;;;4983054;28;20474;-54
2022/06/03 03:54:47;;;;;;;6.70;4.63;;;12.20;89.00;;;;;;4989129;28;20492;-54
2022/06/03 03:57:53;;;;;;;7.57;5.90;;;12.30;89.00;;;;;;4975195;28;20483;-53
2022/06/03 04:00:33;;;;;;;8.17;5.80;;;12.40;89.10;;;;;;4962356;28;20479;-53
2022/06/03 04:03:31;;;;;;;8.07;4.37;;;12.40;89.50;;;;;;5013202;28;20489;-53
2022/06/03 04:06:22;;;;;;;6.80;5.23;;;12.20;89.30;;;;;;5003436;28;20477;-54
2022/06/03 04:09:20;;;;;;;6.33;5.30;;;12.20;89.00;;;;;;5020001;28;20494;-53
2022/06/03 04:12:16;;;;;;;8.67;4.20;;;12.30;89.30;;;;;;5018788;28;20482;-54
2022/06/03 04:15:19;;;;;;;20.67;4.97;;;12.30;89.50;;;;;;5019527;28;20484;-54
2022/06/03 04:18:30;;;;;;;12.57;4.57;;;12.40;89.80;;;;;;5020084;28;20819;-54
2022/06/03 04:21:35;;;;;;;19.57;5.90;;;12.50;90.10;;;;;;5017025;28;20566;-54
2022/06/03 04:24:33;;;;;;;15.73;5.40;;;12.30;90.20;;;;;;5020575;28;20476;-54
2022/06/03 04:27:48;;;;;;;10.37;4.83;;;12.30;90.30;;;;;;4997483;28;20971;-54
2022/06/03 04:30:46;;;;;;;12.23;6.57;;;12.40;90.30;;;;;;4994054;28;20485;-54
2022/06/03 04:33:48;;;;;;;13.30;6.57;;;12.50;90.40;;;;;;4977402;28;20476;-54
2022/06/03 04:37:00;;;;;;;7.13;5.60;;;12.80;90.50;;;;;;5007091;28;20493;-54
2022/06/03 04:40:27;;;;;;;6.57;5.30;;;12.90;90.30;;;;;;4916739;28;20861;-54
2022/06/03 04:43:36;;;;;;;11.47;5.27;;;12.90;90.70;;;;;;4935356;28;20723;-54
2022/06/03 04:46:47;;;;;;;5.80;4.70;;;12.80;90.90;;;;;;4904965;28;20904;-54
2022/06/03 04:49:43;;;;;;;21.10;5.03;;;13.00;90.80;;;;;;4981569;28;20582;-55
2022/06/03 04:52:47;;;;;;;8.53;5.83;;;13.10;90.80;;;;;;5000432;28;20468;-55
2022/06/03 04:56:04;;;;;;;10.10;6.37;;;13.30;90.70;;;;;;4990682;28;20490;-55
2022/06/03 04:59:04;;;;;;;9.97;6.10;;;13.50;90.50;;;;;;4994201;28;20482;-56
2022/06/03 05:02:06;;;;;;;8.07;5.67;;;13.60;90.20;;;;;;4999052;28;20877;-56
2022/06/03 05:05:13;;;;;;;6.70;5.10;;;13.80;90.00;;;;;;5000359;28;20477;-56
2022/06/03 05:08:12;;;;;;;6.70;5.50;;;14.00;89.90;;;;;;4989103;28;20499;-54
2022/06/03 05:11:24;;;;;;;6.83;4.50;;;14.30;90.00;;;;;;4981924;28;20484;-54
2022/06/03 05:14:39;;;;;;;13.50;5.73;;;14.50;90.00;;;;;;4999059;28;20495;-54
2022/06/03 05:17:29;;;;;;;10.33;4.97;;;14.70;89.40;;;;;;4997660;28;20906;-54
2022/06/03 05:20:31;;;;;;;5.37;4.90;;;14.90;89.20;;;;;;4991131;28;20534;-54
2022/06/03 05:23:21;;;;;;;14.10;5.20;;;15.00;88.50;;;;;;5006896;28;20484;-54
2022/06/03 05:26:23;;;;;;;6.37;4.33;;;15.20;88.60;;;;;;4993800;28;20481;-54
2022/06/03 05:29:13;;;;;;;8.47;5.13;;;15.40;87.90;;;;;;4992370;28;20817;-54
2022/06/03 05:32:17;;;;;;;8.70;4.70;;;15.70;88.20;;;;;;4991756;28;20473;-54
2022/06/03 05:35:10;;;;;;;4.20;3.63;;;15.80;86.70;;;;;;4991192;28;20491;-54
2022/06/03 05:38:00;;;;;;;11.73;4.30;;;16.10;85.70;;;;;;5002152;28;20504;-54
2022/06/03 05:40:37;;;;;;;8.97;4.77;;;16.20;86.00;;;;;;4992756;28;20509;-53
2022/06/03 05:43:33;;;;;;;5.40;4.57;;;16.40;86.30;;;;;;4995921;28;20484;-53
2022/06/03 05:46:19;;;;;;;14.23;4.63;;;16.50;85.10;;;;;;5000710;28;21006;-54
2022/06/03 05:48:57;;;;;;;5.77;4.23;;;16.70;83.90;;;;;;5001236;28;20487;-53
2022/06/03 05:51:53;;;;;;;10.60;5.23;;;16.80;83.50;;;;;;4994644;28;21036;-53
2022/06/03 05:54:48;;;;;;;19.60;4.93;;;16.90;82.40;;;;;;4998365;28;20482;-54
2022/06/03 05:57:25;;;;;;;11.67;5.67;;;17.00;82.10;;;;;;5008424;28;20478;-54
2022/06/03 06:00:28;;;;;;;12.60;4.93;;;17.10;81.70;;;;;;4993055;28;20978;-53
2022/06/03 06:03:11;;;;;;;4.23;3.53;;;17.20;80.60;;;;;;4999567;28;20499;-54
2022/06/03 06:05:43;;;;;;;4.23;3.50;;;;;;;;;;4999538;28;20489;-53
2022/06/03 06:08:24;;;;;;;8.27;3.67;;;17.30;80.20;;;;;;4998532;28;20497;-53
2022/06/03 06:11:04;;;;;;;6.27;4.30;;;17.50;79.90;;;;;;5001600;28;21030;-53
2022/06/03 06:14:06;;;;;;;10.60;4.27;;;17.60;80.40;;;;;;4991823;28;20477;-53
2022/06/03 06:16:37;;;;;;;7.30;3.83;;;17.70;78.70;;;;;;4987543;28;20579;-53
2022/06/03 06:19:09;;;;;;;7.40;3.50;;;17.90;78.80;;;;;;5000076;28;20580;-53
2022/06/03 06:21:51;;;;;;;8.33;4.20;;;18.00;78.80;;;;;;4999032;28;20486;-52
2022/06/03 06:24:24;;;;;;;11.63;4.00;;;18.10;78.40;;;;;;5009118;28;20516;-53
2022/06/03 06:27:16;;;;;;;4.50;3.60;;;18.20;78.60;;;;;;5017046;28;21198;-52
2022/06/03 06:30:14;;;;;;;8.93;3.60;;;18.40;79.10;;;;;;5016733;28;20509;-52
2022/06/03 06:33:06;;;;;;;5.20;3.67;;;18.60;79.50;;;;;;4996018;28;20526;-53
2022/06/03 06:36:27;;;;;;;2.67;2.47;;;19.00;79.60;;;;;;5000961;28;20500;-53
2022/06/03 06:39:03;;;;;;;3.90;3.20;;;19.20;78.60;;;;;;4976447;28;20487;-53
2022/06/03 06:41:41;;;;;;;4.53;3.80;;;19.50;78.60;;;;;;4993449;28;20531;-53
2022/06/03 06:44:12;;;;;;;5.70;3.83;;;19.70;77.80;;;;;;5000450;28;20496;-53
2022/06/03 06:46:52;;;;;;;4.20;3.23;;;19.80;79.10;;;;;;4992526;28;20477;-54
2022/06/03 06:49:28;;;;;;;4.90;3.03;;;19.90;77.30;;;;;;5011063;28;20488;-53
2022/06/03 06:52:20;;;;;;;7.50;3.97;;;20.10;77.70;;;;;;4997664;28;20480;-54
2022/06/03 06:54:51;;;;;;;9.80;4.00;;;;;;;;;;4997206;28;20493;-53
2022/06/03 06:57:22;;;;;;;3.70;3.40;;;20.30;76.70;;;;;;4998762;28;20458;-53
2022/06/03 06:59:53;;;;;;;17.33;4.10;;;;;;;;;;4999535;28;21057;-53
2022/06/03 07:02:24;;;;;;;3.73;2.93;;;20.40;75.90;;;;;;4999005;28;20488;-53
2022/06/03 07:04:58;;;;;;;17.50;4.33;;;20.60;76.70;;;;;;4999284;28;20505;-53
2022/06/03 07:07:33;;;;;;;8.53;4.53;;;20.70;76.20;;;;;;5000238;28;20488;-53
2022/06/03 07:10:03;;;;;;;13.93;3.50;;;20.90;76.30;;;;;;4995072;28;20480;-53
2022/06/03 07:12:35;;;;;;;7.53;2.93;;;21.10;75.70;;;;;;5012453;28;20566;-53
2022/06/03 07:15:09;;;;;;;7.40;3.53;;;21.30;75.30;;;;;;4999319;28;21365;-54
2022/06/03 07:20:42;;;;;;;8.93;3.30;;;21.70;74.00;;;;;;4989083;28;20532;-53
2022/06/03 07:23:16;;;;;;;6.53;3.20;;;21.90;74.30;;;;;;5000688;28;20480;-55
2022/06/03 07:25:47;;;;;;;9.20;3.63;;;22.20;74.70;;;;;;4998479;28;20479;-54
2022/06/03 07:28:32;;;;;;;4.47;4.03;;;22.40;73.90;;;;;;4997912;28;20865;-53
2022/06/03 07:31:10;;;;;;;7.73;3.47;;;22.70;73.20;;;;;;5000025;28;20505;-55
2022/06/03 07:33:49;;;;;;;5.50;3.20;;;22.80;72.60;;;;;;4996357;28;20561;-55
2022/06/03 07:36:19;;;;;;;8.87;3.53;;;;;;;;;;5000643;28;20477;-54
2022/06/03 07:38:53;;;;;;;3.80;3.50;;;23.30;72.20;;;;;;4997849;28;20852;-54
2022/06/03 07:41:27;;;;;;;10.33;3.90;;;23.40;71.60;;;;;;4999802;28;21078;-54
2022/06/03 07:43:59;;;;;;;4.77;3.30;;;23.50;71.20;;;;;;4998925;28;20489;-55
2022/06/03 07:46:31;;;;;;;4.77;3.67;;;23.60;72.00;;;;;;4999380;28;20481;-54
2022/06/03 07:48:58;;;;;;;3.50;3.20;;;23.70;72.40;;;;;;4998905;28;20476;-55
2022/06/03 07:51:31;;;;;;;8.50;3.57;;;23.80;72.70;;;;;;5003630;28;21038;-53
2022/06/03 07:54:04;;;;;;;5.20;3.40;;;;;;;;;;4998513;28;20485;-55
2022/06/03 07:56:33;;;;;;;3.87;3.57;;;24.20;72.30;;;;;;4998209;28;20496;-54
2022/06/03 07:59:03;;;;;;;3.90;3.00;;;24.30;71.10;;;;;;4998376;28;20485;-55
2022/06/03 08:01:35;;;;;;;11.20;3.30;;;24.30;71.30;;;;;;4998282;28;20470;-54
2022/06/03 08:04:02;;;;;;;4.87;3.40;;;;;;;;;;4999852;28;20489;-54
2022/06/03 08:10:56;;;;;;;4.33;3.90;;;24.30;71.20;;;;;;4999287;28;20650;-54
2022/06/03 08:12:02;;;;;;;12.40;2.97;;;24.30;71.80;;;;;;4997190;28;20478;-54
2022/06/03 08:14:29;;;;;;;8.67;3.40;;;24.30;72.00;;;;;;4998321;28;20474;-54
2022/06/03 08:16:58;;;;;;;4.30;3.53;;;;;;;;;;4999337;28;20493;-54
2022/06/03 08:19:27;;;;;;;17.83;3.93;;;24.70;73.00;;;;;;4994344;28;20473;-53
2022/06/03 08:21:57;;;;;;;9.47;3.20;;;25.10;73.80;;;;;;4997059;28;20531;-53
2022/06/03 08:24:27;;;;;;;16.47;4.70;;;25.40;72.10;;;;;;5012381;28;20481;-54
2022/06/03 08:26:58;;;;;;;4.50;3.60;;;25.70;71.70;;;;;;5001866;28;20584;-54
2022/06/03 08:29:31;;;;;;;5.23;4.10;;;26.20;72.80;;;;;;4997876;28;20482;-54
2022/06/03 08:32:00;;;;;;;9.33;3.43;;;26.40;70.30;;;;;;5001510;28;20481;-54
2022/06/03 08:34:32;;;;;;;4.30;3.57;;;26.60;70.90;;;;;;5000856;28;20489;-54
2022/06/03 08:37:00;;;;;;;10.60;3.53;;;26.80;69.90;;;;;;5002327;28;20482;-54
2022/06/03 08:39:30;;;;;;;4.23;3.93;;;26.90;70.70;;;;;;5001965;28;20484;-53
2022/06/03 08:42:12;;;;;;;7.70;4.00;;;27.10;71.50;;;;;;5001679;28;20485;-54
2022/06/03 08:44:49;;;;;;;3.40;3.10;;;27.30;69.20;;;;;;5001104;28;20481;-54
2022/06/03 08:47:21;;;;;;;3.67;3.23;;;27.50;69.20;;;;;;4989963;28;20481;-54
2022/06/03 08:49:58;;;;;;;10.83;3.57;;;27.70;69.20;;;;;;5000365;28;20495;-53
2022/06/03 08:52:41;;;;;;;14.23;3.80;;;27.90;71.20;;;;;;5004559;28;21324;-54
2022/06/03 08:55:28;;;;;;;6.63;3.60;;;28.00;69.00;;;;;;5002665;28;21006;-53
2022/06/03 08:57:58;;;;;;;8.67;3.50;;;27.90;66.90;;;;;;5000884;28;20489;-55
2022/06/03 09:00:42;;;;;;;8.57;3.80;;;28.10;67.90;;;;;;5000074;28;20474;-55
2022/06/03 09:03:15;;;;;;;8.50;4.07;;;28.20;69.10;;;;;;4997210;28;21182;-54
2022/06/03 09:05:47;;;;;;;4.03;3.60;;;28.20;68.30;;;;;;5000471;28;20485;-55
2022/06/03 09:08:20;;;;;;;5.13;3.63;;;28.30;68.10;;;;;;4989189;28;20478;-54
2022/06/03 09:10:56;;;;;;;9.90;4.23;;;28.40;67.50;;;;;;5002322;28;20482;-54
2022/06/03 09:13:31;;;;;;;10.03;4.50;;;28.50;68.50;;;;;;4990294;28;20466;-54
2022/06/03 09:15:58;;;;;;;11.57;4.20;;;28.10;69.60;;;;;;5000182;28;20487;-55
2022/06/03 09:18:31;;;;;;;7.20;4.10;;;28.10;68.90;;;;;;5000867;28;20488;-54
2022/06/03 09:21:01;;;;;;;4.90;4.60;;;;;;;;;;5002217;28;20497;-54
2022/06/03 09:23:29;;;;;;;8.57;4.23;;;;;;;;;;5002380;28;20509;-54
2022/06/03 09:25:58;;;;;;;5.60;3.53;;;28.00;68.50;;;;;;5002788;28;20485;-54
2022/06/03 09:28:32;;;;;;;10.50;5.53;;;28.00;68.50;;;;;;4993397;28;20481;-54
2022/06/03 09:31:01;;;;;;;4.43;4.03;;;27.90;69.30;;;;;;4995064;28;20493;-54
2022/06/03 09:33:31;;;;;;;7.47;3.90;;;27.90;69.30;;;;;;5000099;28;20485;-54
2022/06/03 09:36:01;;;;;;;12.90;4.20;;;28.00;70.00;;;;;;5000160;28;20489;-54
2022/06/03 09:38:32;;;;;;;4.87;4.40;;;28.00;70.70;;;;;;4996992;28;20489;-54
2022/06/03 09:41:01;;;;;;;5.23;4.40;;;28.00;71.80;;;;;;5000492;28;20456;-54
2022/06/03 09:43:32;;;;;;;11.10;4.13;;;28.10;70.40;;;;;;5001844;28;21218;-54
2022/06/03 09:46:00;;;;;;;7.10;4.30;;;;;;;;;;5002913;28;20485;-54
2022/06/03 09:48:32;;;;;;;18.53;4.93;;;28.20;68.70;;;;;;5000815;28;20481;-53
2022/06/03 09:51:04;;;;;;;6.07;4.17;;;28.40;70.00;;;;;;4997105;28;20528;-53
2022/06/03 09:53:35;;;;;;;5.60;3.70;;;28.60;70.50;;;;;;5000938;28;20492;-53
2022/06/03 09:56:07;;;;;;;4.90;4.27;;;28.70;68.90;;;;;;4998486;28;20485;-53
2022/06/03 09:58:34;;;;;;;8.07;4.00;;;;;;;;;;5000597;28;20825;-53
2022/06/03 10:01:03;;;;;;;21.50;4.93;;;29.10;70.10;;;;;;5004192;28;20492;-54
2022/06/03 10:03:32;;;;;;;9.17;4.17;;;29.40;70.40;;;;;;5001438;28;20477;-54
2022/06/03 10:06:00;;;;;;;4.30;3.90;;;29.60;69.70;;;;;;4995864;28;21014;-54
2022/06/03 10:12:48;;;;;;;10.20;3.97;;;29.70;67.80;;;;;;4998022;28;20478;-53
2022/06/03 10:14:17;;;;;;;6.00;4.60;;;;;;;;;;4955212;28;20490;-54
2022/06/03 10:16:45;;;;;;;8.63;4.33;;;;;;;;;;4959619;28;20916;-53
2022/06/03 10:19:13;;;;;;;4.10;3.80;;;30.10;68.20;;;;;;4976016;28;20473;-54
2022/06/03 10:21:51;;;;;;;14.63;3.97;;;30.10;68.70;;;;;;5001027;28;21031;-54
2022/06/03 10:24:18;;;;;;;11.43;4.37;;;30.10;68.30;;;;;;5000157;28;20977;-54
2022/06/03 10:26:49;;;;;;;4.27;3.87;;;30.20;69.00;;;;;;5000492;28;20512;-53
2022/06/03 10:29:17;;;;;;;4.43;4.03;;;30.20;68.10;;;;;;4990228;28;20871;-54
2022/06/03 10:31:48;;;;;;;4.70;3.70;;;30.20;67.10;;;;;;4996492;28;20516;-54
2022/06/03 10:34:21;;;;;;;4.40;4.10;;;30.20;66.10;;;;;;4996190;28;20477;-54
2022/06/03 10:36:49;;;;;;;10.43;5.07;;;29.90;63.60;;;;;;4996509;28;20521;-54
2022/06/03 10:39:18;;;;;;;6.83;4.90;;;29.50;65.20;;;;;;4998818;28;20596;-53
2022/06/03 10:41:47;;;;;;;4.50;4.00;;;29.50;69.30;;;;;;4999560;28;20489;-54
2022/06/03 10:44:16;;;;;;;7.60;4.10;;;29.60;68.90;;;;;;4997587;28;20492;-53
2022/06/03 10:46:55;;;;;;;4.60;4.20;;;29.70;70.20;;;;;;5000606;28;20498;-53
2022/06/03 10:49:24;;;;;;;4.80;4.40;;;30.00;70.30;;;;;;4998630;28;21002;-53
2022/06/03 11:02:52;;;;;;;9.43;3.93;;;;;;;;;;4998591;28;21098;-54
2022/06/03 11:05:25;;;;;;;4.80;4.37;;;30.00;68.80;;;;;;5002943;28;20495;-54
2022/06/03 11:08:02;;;;;;;5.67;4.30;;;29.90;68.30;;;;;;4999889;28;20481;-53
2022/06/03 11:10:31;;;;;;;8.40;4.97;;;29.80;69.70;;;;;;4987200;28;21201;-54
2022/06/03 11:13:01;;;;;;;8.90;4.80;;;29.90;69.40;;;;;;5000387;28;20485;-54
2022/06/03 11:15:32;;;;;;;4.97;4.57;;;29.90;69.60;;;;;;4989168;28;20485;-53
2022/06/03 11:18:01;;;;;;;4.23;3.93;;;;;;;;;;4991094;28;20548;-53
2022/06/03 11:20:40;;;;;;;8.43;4.70;;;29.90;68.90;;;;;;5004339;28;21126;-54
2022/06/03 11:23:09;;;;;;;9.23;4.43;;;29.70;67.60;;;;;;4995937;28;20492;-53
2022/06/03 11:25:39;;;;;;;10.43;4.97;;;29.70;69.50;;;;;;4998988;28;20482;-54
2022/06/03 11:28:10;;;;;;;7.60;3.93;;;29.60;68.70;;;;;;4998650;28;20459;-54
2022/06/03 11:30:46;;;;;;;5.20;4.67;;;29.40;69.30;;;;;;4996832;28;20481;-54
2022/06/03 11:33:18;;;;;;;8.80;4.70;;;29.30;68.70;;;;;;4991894;28;20995;-54
2022/06/03 11:35:51;;;;;;;5.53;4.60;;;29.30;69.80;;;;;;4998171;28;20493;-53
2022/06/03 11:38:22;;;;;;;4.63;4.10;;;29.20;69.80;;;;;;4998162;28;20480;-53
2022/06/03 11:40:54;;;;;;;30.97;6.30;;;29.10;70.10;;;;;;4997071;28;20489;-54
2022/06/03 11:43:24;;;;;;;12.33;5.23;;;;;;;;;;4994042;28;20593;-53
2022/06/03 11:45:56;;;;;;;5.00;4.70;;;28.90;71.00;;;;;;4997024;28;21306;-53
2022/06/03 11:48:26;;;;;;;9.80;4.97;;;;;;;;;;4991251;28;20978;-53
2022/06/03 11:50:54;;;;;;;8.20;4.80;;;28.90;70.80;;;;;;5010558;28;20473;-53
2022/06/03 11:53:25;;;;;;;5.43;4.77;;;28.80;71.50;;;;;;4994529;28;20501;-52
2022/06/03 11:55:55;;;;;;;5.33;4.57;;;28.70;70.70;;;;;;4991161;28;20488;-52
2022/06/03 11:58:29;;;;;;;10.63;4.83;;;28.50;71.30;;;;;;5010291;28;20476;-52
2022/06/03 12:01:02;;;;;;;11.83;4.50;;;28.50;73.00;;;;;;4998297;28;21025;-52
2022/06/03 12:03:39;;;;;;;6.57;5.20;;;28.50;70.90;;;;;;4999425;28;20543;-53
2022/06/03 12:06:12;;;;;;;10.50;4.90;;;28.20;72.40;;;;;;4988542;28;20488;-51
2022/06/03 12:08:47;;;;;;;8.90;4.73;;;27.90;75.50;;;;;;5004175;28;20492;-52
2022/06/03 12:14:27;;;;;;;5.80;5.40;;;27.50;78.10;;;;;;5002426;28;20782;-53
2022/06/03 12:16:58;;;;;;;5.70;4.87;;;27.50;76.70;;;;;;5003148;28;21170;-52
2022/06/03 12:19:41;;;;;;;5.87;5.20;;;27.50;80.60;;;;;;5005265;28;20871;-58
2022/06/03 12:22:39;;;;;;;5.30;4.80;;;27.40;79.80;;;;;;5000984;28;21447;-52
2022/06/03 12:25:27;;;;;;;6.00;4.87;;;27.30;81.20;;;;;;4997031;28;20476;-52
2022/06/03 12:27:55;;;;;;;5.53;5.03;;;27.20;80.70;;;;;;5002799;28;21267;-51
2022/06/03 12:30:33;;;;;;;5.40;4.90;;;;;;;;;;5001902;28;20549;-52
2022/06/03 12:33:03;;;;;;;6.53;5.07;;;26.60;84.10;;;;;;5006358;28;20495;-52
2022/06/03 12:35:56;;;;;;;11.60;6.00;;;26.20;84.10;;;;;;5003859;28;20826;-52
2022/06/03 12:39:13;;;;;;;5.50;5.10;;;25.90;83.50;;;;;;4998761;28;20473;-52
2022/06/03 12:42:01;;;;;;;6.63;6.03;;;;;;;;;;4995305;28;20453;-51
2022/06/03 12:44:52;;;;;;;6.63;5.90;;;25.70;86.60;;;;;;5000990;28;20469;-52
2022/06/03 12:47:29;;;;;;;6.33;5.70;;;25.60;89.00;;;;;;5003869;28;20499;-51
2022/06/03 12:49:58;;;;;;;8.57;5.60;;;25.60;89.40;;;;;;5000022;28;20489;-58
2022/06/03 12:52:41;;;;;;;6.20;5.70;;;25.50;89.70;;;;;;4998720;28;21069;-52
2022/06/03 12:55:18;;;;;;;6.73;5.80;;;25.50;89.70;;;;;;4999822;28;21007;-52
2022/06/03 12:57:50;;;;;;;10.40;6.63;;;25.40;90.30;;;;;;4980534;28;20772;-52
2022/06/03 13:00:27;;;;;;;6.47;5.87;;;25.50;89.80;;;;;;5005068;28;20904;-52
2022/06/03 13:02:56;;;;;;;22.70;7.37;;;25.50;88.50;;;;;;5002478;28;20571;-52
2022/06/03 13:05:35;;;;;;;6.30;5.70;;;25.50;88.70;;;;;;5002915;28;20489;-53
2022/06/03 13:08:08;;;;;;;17.03;6.93;;;25.50;88.90;;;;;;5000904;28;20605;-51
2022/06/03 13:10:59;;;;;;;7.30;6.60;;;25.40;89.40;;;;;;4999234;28;20485;-52
2022/06/03 13:13:41;;;;;;;8.23;7.53;;;25.40;89.90;;;;;;4997802;28;20927;-52
2022/06/03 13:16:41;;;;;;;9.43;6.50;;;25.40;89.10;;;;;;4997065;28;20527;-52
2022/06/03 13:19:23;;;;;;;9.57;6.17;;;;;;;;;;5000270;28;23416;-52
2022/06/03 13:22:07;;;;;;;8.17;7.23;;;25.30;90.00;;;;;;4979748;28;20452;-52
2022/06/03 13:24:35;;;;;;;7.20;6.50;;;25.30;90.00;;;;;;5000028;28;20497;-52
2022/06/03 13:27:11;;;;;;;16.30;6.70;;;;;;;;;;4998524;28;20489;-52
2022/06/03 13:30:09;;;;;;;8.30;6.47;;;25.10;88.70;;;;;;5001479;28;20940;-52
2022/06/03 13:32:58;;;;;;;8.77;6.90;;;25.00;89.70;;;;;;4994159;28;20481;-51
2022/06/03 13:35:28;;;;;;;11.73;6.57;;;25.10;89.60;;;;;;5000142;28;20564;-51
2022/06/03 13:38:28;;;;;;;6.97;6.37;;;25.10;90.20;;;;;;5002027;28;20836;-52
2022/06/03 13:44:08;;;;;;;9.30;7.10;;;25.10;91.20;;;;;;4999828;28;20492;-52
2022/06/03 13:46:36;;;;;;;9.53;7.10;;;25.10;91.00;;;;;;5001564;28;20485;-52
2022/06/03 13:49:13;;;;;;;14.73;7.33;;;25.10;90.70;;;;;;4999744;28;20583;-51
2022/06/03 13:51:57;;;;;;;9.13;7.00;;;25.00;90.90;;;;;;5000931;28;20481;-52
2022/06/03 13:54:32;;;;;;;11.80;7.63;;;25.00;90.60;;;;;;4989361;28;20473;-51
2022/06/03 13:57:09;;;;;;;8.83;7.70;;;25.10;90.60;;;;;;5000776;28;20492;-50
2022/06/03 13:59:42;;;;;;;9.20;8.30;;;25.00;91.20;;;;;;4999726;28;20790;-51
2022/06/03 14:02:19;;;;;;;10.27;8.13;;;25.00;91.00;;;;;;4998325;28;20485;-52
2022/06/03 14:05:00;;;;;;;26.97;8.57;;;25.00;91.20;;;;;;5000923;28;20992;-50
2022/06/03 14:07:34;;;;;;;14.40;9.70;;;25.00;91.40;;;;;;4990432;28;20477;-51
2022/06/03 14:10:07;;;;;;;15.20;7.50;;;24.90;91.40;;;;;;4999856;28;20485;-52
2022/06/03 14:12:41;;;;;;;12.93;8.10;;;24.70;91.20;;;;;;4999188;28;20488;-54
2022/06/03 14:15:14;;;;;;;34.53;8.60;;;24.70;91.70;;;;;;5001803;28;20484;-53
2022/06/03 14:17:55;;;;;;;7.90;7.10;;;24.50;91.40;;;;;;5000041;28;20964;-54
2022/06/03 14:20:26;;;;;;;9.60;8.70;;;24.40;91.80;;;;;;4995189;28;20485;-52
2022/06/03 14:23:03;;;;;;;10.27;9.07;;;24.40;91.90;;;;;;4988854;28;20485;-52
2022/06/03 14:25:34;;;;;;;9.73;8.20;;;24.40;91.70;;;;;;4990201;28;20485;-52
2022/06/03 14:28:09;;;;;;;12.87;8.00;;;;;;;;;;4999449;28;21359;-53
2022/06/03 14:30:48;;;;;;;18.47;9.33;;;24.40;91.80;;;;;;4999953;28;20850;-52
2022/06/03 14:33:17;;;;;;;9.67;8.67;;;24.50;92.10;;;;;;5003760;28;20488;-52
2022/06/03 14:35:47;;;;;;;10.47;8.93;;;24.60;91.70;;;;;;5001318;28;20481;-51
2022/06/03 14:38:21;;;;;;;10.23;9.37;;;24.60;91.70;;;;;;4998429;28;20489;-52
2022/06/03 14:40:51;;;;;;;12.97;8.60;;;24.60;91.70;;;;;;5000121;28;20485;-52
2022/06/03 14:43:23;;;;;;;9.20;8.30;;;24.70;91.50;;;;;;4998397;28;20570;-52